Latest Weather Observations for Kilmore Gap

IDV60801

Issued at 8:32 am EST Monday 27 June 2016 (issued every 30 minutes, with the page automatically refreshed every 10 minutes)

About weather observations | Map of weather stations | Latest weather observations for VIC | Other Formats
Station Details ID: 088162 Name: KILMORE GAP Lat: -37.38 Lon: 144.97 Height: 527.8 m
Data from the previous 72 hours. | See also: Recent months at Kilmore Gap
Date/Time
EST
Temp
°C
App
Temp
°C
Dew
Point
°C
Rel
Hum
%
Delta-T
°C
Wind Press
QNH
hPa
Press
MSL
hPa
Rain since
9am
mm
Dir  Spd
km/h
Gust
km/h
Spd
kts
Gust
kts
27/07:30am 2.7 -3.0 2.6 99 0.0 N 22 28 12 15 1016.3 - 0.2
27/07:00am 2.7 -3.0 2.6 99 0.0 N 22 26 12 14 1016.3 - 0.0
27/06:30am 2.8 -3.3 2.7 99 0.0 N 24 30 13 16 1016.0 - 0.0
27/06:00am 2.8 -2.9 2.7 99 0.0 N 22 28 12 15 1015.9 1016.9 0.0
27/05:39am 2.8 -2.9 2.7 99 0.0 N 22 26 12 14 1015.7 - 0.0
27/05:38am 2.8 -2.9 2.7 99 0.0 N 22 26 12 14 1015.6 - 0.0
27/05:36am 2.8 -3.3 2.7 99 0.0 N 24 28 13 15 1015.6 - 0.0
27/05:34am 2.8 -3.3 2.7 99 0.0 N 24 28 13 15 1015.5 - 0.0
27/05:30am 2.9 -3.2 2.8 99 0.0 N 24 28 13 15 1015.5 - 0.0
27/05:08am 2.8 -2.9 2.7 99 0.0 N 22 26 12 14 1015.4 - 0.0
27/05:00am 2.8 -2.9 2.7 99 0.0 N 22 26 12 14 1015.4 - 0.0
27/04:53am 2.9 -2.8 2.8 99 0.0 N 22 30 12 16 1015.4 - 0.0
27/04:52am 2.9 -2.8 2.8 99 0.0 N 22 30 12 16 1015.3 - 0.0
27/04:30am 2.9 -2.8 2.8 99 0.0 N 22 26 12 14 1015.4 - 0.0
27/04:06am 2.9 -3.2 2.8 99 0.0 N 24 30 13 16 1015.3 - 0.0
27/04:02am 2.9 -3.2 2.8 99 0.0 N 24 30 13 16 1015.4 - 0.0
27/04:00am 2.9 -3.2 2.8 99 0.0 N 24 30 13 16 1015.4 - 0.0
27/03:46am 2.9 -2.4 2.8 99 0.0 N 20 26 11 14 1015.4 - 0.0
27/03:43am 2.9 -2.5 2.6 98 0.1 N 20 24 11 13 1015.5 - 0.0
27/03:42am 2.8 -2.6 2.7 99 0.0 N 20 24 11 13 1015.5 - 0.0
27/03:41am 2.8 -2.6 2.7 99 0.0 N 20 24 11 13 1015.5 - 0.0
27/03:39am 2.8 -2.6 2.7 99 0.0 N 20 24 11 13 1015.5 - 0.0
27/03:38am 2.8 -2.6 2.7 99 0.0 N 20 24 11 13 1015.5 - 0.0
27/03:33am 2.8 -2.6 2.7 99 0.0 N 20 24 11 13 1015.5 - 0.0
27/03:31am 2.8 -2.6 2.7 99 0.0 N 20 24 11 13 1015.5 - 0.0
27/03:30am 2.8 -2.6 2.7 99 0.0 N 20 24 11 13 1015.5 - 0.0
27/03:28am 2.8 -2.6 2.5 98 0.1 N 20 24 11 13 1015.5 - 0.0
27/03:26am 2.8 -2.6 2.7 99 0.0 N 20 24 11 13 1015.5 - 0.0
27/03:25am 2.8 -2.6 2.7 99 0.0 N 20 24 11 13 1015.5 - 0.0
27/03:21am 2.9 -2.4 2.8 99 0.0 N 20 24 11 13 1015.6 - 0.0
27/03:00am 2.8 -2.9 2.7 99 0.0 N 22 28 12 15 1015.5 1016.4 0.0
27/02:30am 2.8 -3.0 2.5 98 0.1 N 22 28 12 15 1015.5 - 0.0
27/02:26am 2.9 -2.8 2.8 99 0.0 N 22 28 12 15 1015.5 - 0.0
27/02:00am 3.0 -3.5 2.9 99 0.0 N 26 32 14 17 1015.6 - 0.0
27/01:30am 3.0 -3.5 2.7 98 0.1 N 26 32 14 17 1015.7 - 0.0
27/01:00am 3.1 -3.3 3.0 99 0.0 N 26 32 14 17 1015.6 - 0.0
27/12:30am 3.2 -3.3 2.9 98 0.1 N 26 32 14 17 1015.6 - 0.0
27/12:00am 3.3 -3.1 3.2 99 0.0 N 26 32 14 17 1015.7 1016.6 0.0
 
Date/Time
EST
Temp
°C
App
Temp
°C
Dew
Point
°C
Rel
Hum
%
Delta-T
°C
Wind Press
QNH
hPa
Press
MSL
hPa
Rain since
9am
mm
Dir  Spd
km/h
Gust
km/h
Spd
kts
Gust
kts
26/11:30pm 3.3 -3.1 3.2 99 0.0 N 26 32 14 17 1015.7 - 0.0
26/11:27pm 3.3 -3.1 3.2 99 0.0 N 26 32 14 17 1015.8 - 0.0
26/11:24pm 3.4 -3.0 3.3 99 0.0 N 26 32 14 17 1015.8 - 0.0
26/11:04pm 3.5 -2.1 3.4 99 0.0 N 22 28 12 15 1016.0 - 0.0
26/11:00pm 3.5 -2.1 3.4 99 0.0 N 22 28 12 15 1016.0 - 0.0
26/10:52pm 3.5 -2.5 3.4 99 0.0 N 24 28 13 15 1016.1 - 0.0
26/10:30pm 3.5 -1.7 3.4 99 0.0 N 20 24 11 13 1016.1 - 0.0
26/10:29pm 3.5 -1.7 3.4 99 0.0 N 20 24 11 13 1016.1 - 0.0
26/10:25pm 3.5 -2.1 3.4 99 0.0 N 22 26 12 14 1016.1 - 0.0
26/10:00pm 3.5 -2.1 3.4 99 0.0 N 22 28 12 15 1016.2 - 0.0
26/09:30pm 3.5 -1.5 3.4 99 0.0 N 19 24 10 13 1016.3 - 0.0
26/09:25pm 3.5 -1.5 3.4 99 0.0 N 19 24 10 13 1016.3 - 0.0
26/09:00pm 3.5 -1.7 3.4 99 0.0 N 20 24 11 13 1016.4 1017.4 0.0
26/08:30pm 3.5 -1.6 3.2 98 0.1 N 19 24 10 13 1016.7 - 0.0
26/08:29pm 3.5 -1.6 3.2 98 0.1 N 19 24 10 13 1016.7 - 0.0
26/08:21pm 3.5 -1.2 3.4 99 0.0 N 17 20 9 11 1016.6 - 0.0
26/08:00pm 3.5 -1.2 3.2 98 0.1 N 17 20 9 11 1016.6 - 0.0
26/07:30pm 3.6 -1.1 3.3 98 0.1 N 17 20 9 11 1016.7 - 0.0
26/07:02pm 3.7 -1.0 3.4 98 0.1 N 17 20 9 11 1016.7 - 0.0
26/07:00pm 3.7 -1.0 3.4 98 0.1 N 17 20 9 11 1016.7 - 0.0
26/06:30pm 3.6 -0.7 3.3 98 0.1 N 15 19 8 10 1016.4 - 0.0
26/06:00pm 3.7 -0.6 3.4 98 0.1 N 15 19 8 10 1016.4 1017.4 0.0
26/05:30pm 3.8 -0.8 3.5 98 0.1 N 17 20 9 11 1016.3 - 0.0
26/05:00pm 3.9 -1.1 3.5 97 0.2 N 19 24 10 13 1016.6 - 0.0
26/04:30pm 4.0 -1.6 3.4 96 0.3 N 22 28 12 15 1016.4 - 0.0
26/04:00pm 3.9 -1.7 3.3 96 0.3 N 22 28 12 15 1016.4 - 0.0
26/03:30pm 4.1 -2.3 3.4 95 0.3 N 26 32 14 17 1016.3 - 0.0
26/03:00pm 4.2 -2.5 3.6 96 0.3 N 28 41 15 22 1016.6 1017.5 0.0
26/02:30pm 4.2 -2.5 3.9 98 0.1 N 28 37 15 20 1016.6 - 0.0
26/02:00pm 4.2 -3.4 4.1 99 0.0 N 33 43 18 23 1016.7 - 0.0
26/01:30pm 4.1 -3.5 4.0 99 0.0 N 33 41 18 22 1017.0 - 0.0
26/01:00pm 3.4 -3.7 3.3 99 0.0 N 30 35 16 19 1017.2 - 0.0
26/12:51pm 3.2 -4.4 3.1 99 0.0 N 32 44 17 24 1017.2 - 0.0
26/12:34pm 2.9 -4.3 2.8 99 0.0 N 30 37 16 20 1017.4 - 0.0
26/12:30pm 3.1 -4.1 3.0 99 0.0 N 30 37 16 20 1017.5 - 0.0
26/12:00pm 2.7 -4.9 2.6 99 0.0 N 32 43 17 23 1017.6 1018.6 0.0
26/11:30am 2.8 -5.0 2.7 99 0.0 N 33 43 18 23 1017.8 - 0.0
26/11:00am 2.5 -5.2 2.4 99 0.0 N 32 41 17 22 1018.3 - 0.0
26/10:30am 2.6 -4.3 2.5 99 0.0 N 28 37 15 20 1018.8 - 0.0
26/10:00am 2.1 -5.7 2.0 99 0.0 N 32 39 17 21 1019.0 - 0.0
26/09:30am 1.9 -5.1 1.8 99 0.0 N 28 35 15 19 1019.2 - 0.0
26/09:00am 1.8 -5.3 1.5 98 0.1 N 28 35 15 19 1019.6 1020.6 0.2
26/08:30am 1.1 -5.3 0.8 98 0.1 N 24 28 13 15 1019.7 - 0.2
26/08:00am 0.6 -5.9 0.3 98 0.1 N 24 28 13 15 1020.0 - 0.2
26/07:30am 0.9 -6.3 0.6 98 0.1 N 28 32 15 17 1019.8 - 0.2
26/07:03am 0.3 -5.3 0.0 98 0.1 N 19 24 10 13 1019.8 - 0.2
26/07:00am 0.3 -5.3 0.0 98 0.1 N 19 20 10 11 1019.8 - 0.2
26/06:30am 0.7 -4.5 0.4 98 0.1 NNE 17 20 9 11 1019.5 - 0.0
26/06:00am 1.2 -3.5 0.9 98 0.1 N 15 19 8 10 1019.6 1020.6 0.0
26/05:30am 1.6 -3.4 1.3 98 0.1 N 17 19 9 10 1019.5 - 0.0
26/05:00am 2.3 -2.6 2.0 98 0.1 N 17 17 9 9 1019.6 - 0.0
26/04:30am 2.5 -1.6 2.2 98 0.1 N 13 17 7 9 1019.3 - 0.0
26/04:00am 2.6 -1.5 2.3 98 0.1 NNE 13 15 7 8 1019.2 - 0.0
26/03:30am 2.9 -1.5 2.6 98 0.1 N 15 17 8 9 1019.4 - 0.0
26/03:00am 2.8 -1.6 2.5 98 0.1 N 15 17 8 9 1019.9 1020.9 0.0
26/02:30am 2.8 -1.6 2.5 98 0.1 N 15 17 8 9 1020.1 - 0.0
26/02:00am 2.9 -1.5 2.6 98 0.1 N 15 17 8 9 1020.6 - 0.0
26/01:30am 3.1 -1.3 2.8 98 0.1 N 15 19 8 10 1020.3 - 0.0
26/01:00am 3.2 -1.5 2.9 98 0.1 N 17 20 9 11 1020.6 - 0.0
26/12:30am 3.2 -1.2 2.9 98 0.1 N 15 17 8 9 1020.8 - 0.0
26/12:00am 4.0 -0.3 3.3 95 0.3 NNW 15 19 8 10 1021.0 1022.0 0.0
 
Date/Time
EST
Temp
°C
App
Temp
°C
Dew
Point
°C
Rel
Hum
%
Delta-T
°C
Wind Press
QNH
hPa
Press
MSL
hPa
Rain since
9am
mm
Dir  Spd
km/h
Gust
km/h
Spd
kts
Gust
kts
25/11:30pm 4.6 0.7 3.4 92 0.5 NW 13 15 7 8 1021.1 - 0.0
25/11:00pm 4.3 0.5 3.7 96 0.3 NNW 13 15 7 8 1021.3 - 0.0
25/10:30pm 3.8 -0.5 3.4 97 0.2 N 15 17 8 9 1021.5 - 0.0
25/10:00pm 3.9 0.0 3.5 97 0.2 N 13 15 7 8 1021.6 - 0.0
25/09:30pm 4.2 0.7 3.3 94 0.4 N 11 13 6 7 1021.5 - 0.0
25/09:00pm 5.2 3.2 4.3 94 0.4 ESE 4 9 2 5 1021.7 1022.7 0.0
25/08:30pm 5.4 4.2 4.5 94 0.4 CALM 0 0 0 0 1021.9 - 0.0
25/08:00pm 5.3 4.1 4.6 95 0.3 CALM 0 0 0 0 1022.0 - 0.0
25/07:30pm 5.4 3.7 4.2 92 0.5 S 2 7 1 4 1021.9 - 0.0
25/07:00pm 5.7 3.1 4.2 90 0.7 S 7 9 4 5 1021.9 - 0.0
25/06:30pm 6.2 3.6 4.0 86 1.0 SSW 7 9 4 5 1021.9 - 0.0
25/06:00pm 6.1 3.5 4.1 87 0.9 WSW 7 9 4 5 1021.9 1022.9 0.0
25/05:30pm 5.8 2.8 4.3 90 0.7 W 9 11 5 6 1021.8 - 0.0
25/05:00pm 6.5 3.5 4.3 86 1.0 WSW 9 13 5 7 1021.7 - 0.0
25/04:30pm 6.9 3.7 4.9 87 0.9 SW 11 15 6 8 1021.5 - 0.0
25/04:00pm 7.2 3.9 4.3 82 1.3 SSW 11 19 6 10 1021.6 - 0.0
25/03:30pm 7.4 4.5 4.4 81 1.3 S 9 13 5 7 1021.5 - 0.0
25/03:00pm 7.7 5.2 4.5 80 1.4 S 7 13 4 7 1021.5 1022.5 0.0
25/02:30pm 6.8 4.1 3.9 82 1.3 S 7 13 4 7 1021.5 - 0.0
25/02:00pm 7.3 4.8 4.6 83 1.2 SW 7 11 4 6 1021.5 - 0.0
25/01:30pm 7.1 4.2 4.4 83 1.2 SSW 9 15 5 8 1021.7 - 0.0
25/01:00pm 6.9 4.2 3.7 80 1.4 SW 7 13 4 7 1021.9 - 0.0
25/12:30pm 6.7 3.9 3.3 79 1.5 SSW 7 15 4 8 1022.0 - 0.0
25/12:00pm 6.1 2.5 3.1 81 1.3 SSW 11 17 6 9 1022.1 1023.1 0.0
25/11:30am 5.6 2.4 2.8 82 1.2 SSW 9 13 5 7 1022.4 - 0.0
25/11:00am 5.2 2.3 2.7 84 1.1 S 7 11 4 6 1022.4 - 0.0
25/10:30am 4.5 0.4 2.4 86 0.9 SW 13 17 7 9 1022.2 - 0.0
25/10:00am 4.0 -0.6 1.7 85 0.9 SW 15 19 8 10 1022.0 - 0.0
25/09:30am 3.4 -1.2 1.6 88 0.7 SW 15 20 8 11 1021.7 - 0.0
25/09:00am 2.9 -1.7 1.3 89 0.6 WSW 15 19 8 10 1021.5 1022.5 0.0
25/08:30am 2.2 -1.7 1.0 92 0.5 W 11 13 6 7 1021.1 - 0.0
25/08:00am 2.2 -2.1 0.9 91 0.5 SSW 13 17 7 9 1020.8 - 0.0
25/07:30am 2.4 -3.0 1.1 91 0.5 SSW 19 22 10 12 1020.1 - 0.0
25/07:00am 2.0 -3.6 1.0 93 0.4 SW 20 28 11 15 1020.0 - 0.0
25/06:30am 1.9 -3.6 0.7 92 0.5 WSW 19 24 10 13 1019.6 - 0.0
25/06:00am 1.8 -3.3 0.8 93 0.4 SW 17 22 9 12 1019.4 1020.4 0.0
25/05:30am 1.9 -3.5 1.0 94 0.4 WSW 19 24 10 13 1019.2 - 0.0
25/05:00am 2.0 -3.4 1.0 93 0.4 WSW 19 26 10 14 1018.8 - 0.0
25/04:30am 1.9 -3.2 0.9 93 0.4 SW 17 22 9 12 1018.7 - 0.0
25/04:00am 1.8 -3.7 0.6 92 0.5 WSW 19 24 10 13 1018.6 - 0.0
25/03:30am 1.9 -3.8 0.7 92 0.5 WSW 20 28 11 15 1018.2 - 0.0
25/03:00am 2.2 -3.2 1.0 92 0.5 WSW 19 26 10 14 1018.2 1019.2 0.0
25/02:30am 1.9 -3.2 0.7 92 0.5 WSW 17 22 9 12 1018.2 - 0.0
25/02:00am 1.9 -3.8 0.7 92 0.5 SW 20 24 11 13 1017.9 - 0.0
25/01:30am 2.1 -3.9 0.8 91 0.5 SW 22 32 12 17 1017.4 - 0.0
25/01:00am 2.1 -3.6 0.8 91 0.5 WSW 20 28 11 15 1017.0 - 0.0
25/12:30am 2.1 -3.4 0.8 91 0.5 WSW 19 26 10 14 1016.9 - 0.0
25/12:00am 2.1 -3.6 0.8 91 0.5 WSW 20 28 11 15 1016.7 1017.6 0.0
 
Date/Time
EST
Temp
°C
App
Temp
°C
Dew
Point
°C
Rel
Hum
%
Delta-T
°C
Wind Press
QNH
hPa
Press
MSL
hPa
Rain since
9am
mm
Dir  Spd
km/h
Gust
km/h
Spd
kts
Gust
kts
24/11:30pm 2.0 -4.0 0.8 92 0.5 WSW 22 30 12 16 1016.2 - 0.0
24/11:00pm 1.8 -4.3 0.6 92 0.5 WSW 22 30 12 16 1015.9 - 0.0
24/10:30pm 1.9 -4.2 0.6 91 0.5 WSW 22 32 12 17 1015.7 - 0.0
24/10:00pm 1.8 -4.7 0.3 90 0.6 WSW 24 32 13 17 1015.3 - 0.0
24/09:30pm 1.7 -4.4 0.4 91 0.5 WSW 22 30 12 16 1015.1 - 0.0
24/09:00pm 1.7 -4.8 0.4 91 0.5 WSW 24 33 13 18 1014.4 1015.4 0.0
24/08:30pm 1.7 -5.2 0.4 91 0.5 WSW 26 33 14 18 1014.0 - 0.0
24/08:00pm 1.6 -4.9 0.3 91 0.5 WSW 24 32 13 17 1013.6 - 0.0
24/07:30pm 1.5 -4.6 0.2 91 0.5 WSW 22 28 12 15 1013.2 - 0.0
24/07:00pm 1.7 -4.1 0.1 89 0.6 SW 20 30 11 16 1012.7 - 0.0
24/06:30pm 2.0 -4.1 0.1 87 0.7 WSW 22 33 12 18 1012.0 - 0.0
24/06:00pm 2.2 -4.4 -0.2 84 0.9 SW 24 35 13 19 1011.6 1012.5 0.0
24/05:30pm 2.5 -3.6 0.4 86 0.8 SW 22 35 12 19 1011.0 - 0.0
24/05:00pm 2.8 -3.2 0.9 87 0.7 WSW 22 30 12 16 1010.3 - 0.0
24/04:30pm 3.3 -3.1 1.2 86 0.8 WSW 24 43 13 23 1009.7 - 0.0
24/04:00pm 4.0 -3.9 0.9 80 1.2 WSW 32 44 17 24 1009.1 - 0.0
24/03:30pm 4.5 -3.1 0.3 74 1.7 SW 30 44 16 24 1008.2 - 0.0
24/03:00pm 3.9 -2.7 1.9 87 0.8 WSW 26 39 14 21 1007.8 1008.6 0.0
24/02:30pm 4.0 -4.1 1.0 81 1.2 WSW 33 46 18 25 1007.2 - 0.0
24/02:00pm 5.3 -2.3 0.5 71 1.9 WSW 30 48 16 26 1006.6 - 0.0
24/01:56pm 5.4 -1.8 0.4 70 2.0 WSW 28 48 15 26 1006.5 - 0.0
24/01:30pm 5.4 -2.2 0.8 72 1.9 WSW 30 44 16 24 1006.0 - 0.0
24/01:00pm 5.6 -1.8 1.7 76 1.6 WSW 30 44 16 24 1005.5 - 0.0
24/12:30pm 5.1 -1.5 1.9 80 1.3 WSW 26 35 14 19 1005.2 - 0.0
24/12:00pm 4.4 -2.7 1.6 82 1.1 WSW 28 48 15 26 1005.1 1005.9 0.0
24/11:30am 4.3 -3.2 1.5 82 1.1 W 30 39 16 21 1004.9 - 0.0
24/11:00am 5.3 -0.4 2.8 84 1.1 W 22 33 12 18 1004.6 - 0.0
24/10:30am 4.4 -0.4 2.6 88 0.8 W 17 24 9 13 1004.1 - 0.0
24/10:00am 3.9 -0.8 2.9 93 0.4 WNW 17 24 9 13 1003.6 - 0.0
24/09:30am 3.9 -1.8 2.9 93 0.4 NW 22 30 12 16 1002.8 - 0.0
24/09:00am 3.3 -1.2 2.4 94 0.4 WNW 15 20 8 11 1002.6 1003.3 12.6

Other Formats:

Comma delimited format used in spreadsheet applications
http://www.bom.gov.au/fwo/IDV60801/IDV60801.94860.axf

JavaScript Object Notation format (JSON) in row-major order
http://www.bom.gov.au/fwo/IDV60801/IDV60801.94860.json